sensor_id;sensor_type;location;lat;lon;timestamp;pressure;altitude;pressure_sealevel;temperature;humidity
73910;BME280;62245;48.070;7.874;2022-08-19T03:00:13;98652.47;;;19.30;86.70
73910;BME280;62245;48.070;7.874;2022-08-19T03:02:39;98691.91;;;19.56;86.86
73910;BME280;62245;48.070;7.874;2022-08-19T03:05:06;98693.56;;;19.52;87.23
73910;BME280;62245;48.070;7.874;2022-08-19T03:07:31;98692.47;;;19.48;87.12
73910;BME280;62245;48.070;7.874;2022-08-19T03:09:57;98694.63;;;19.46;87.19
73910;BME280;62245;48.070;7.874;2022-08-19T03:12:22;98706.25;;;19.47;87.39
73910;BME280;62245;48.070;7.874;2022-08-19T03:14:47;98705.72;;;19.45;87.34
73910;BME280;62245;48.070;7.874;2022-08-19T03:17:13;98693.56;;;19.42;87.65
73910;BME280;62245;48.070;7.874;2022-08-19T03:19:38;98710.06;;;19.46;87.69
73910;BME280;62245;48.070;7.874;2022-08-19T03:22:03;98720.34;;;19.49;87.61
73910;BME280;62245;48.070;7.874;2022-08-19T03:24:30;98707.63;;;19.44;87.36
73910;BME280;62245;48.070;7.874;2022-08-19T03:26:56;98718.72;;;19.48;87.37
73910;BME280;62245;48.070;7.874;2022-08-19T03:29:23;98717.09;;;19.52;87.38
73910;BME280;62245;48.070;7.874;2022-08-19T03:31:49;98715.75;;;19.54;87.68
73910;BME280;62245;48.070;7.874;2022-08-19T03:34:19;98727.59;;;19.64;87.28
73910;BME280;62245;48.070;7.874;2022-08-19T03:36:46;98716.25;;;19.62;87.15
73910;BME280;62245;48.070;7.874;2022-08-19T03:39:12;98720.34;;;19.54;87.54
73910;BME280;62245;48.070;7.874;2022-08-19T03:41:41;98724.94;;;19.48;87.81
73910;BME280;62245;48.070;7.874;2022-08-19T03:44:07;98729.81;;;19.51;87.62
73910;BME280;62245;48.070;7.874;2022-08-19T03:46:34;98729.81;;;19.51;87.23
73910;BME280;62245;48.070;7.874;2022-08-19T03:49:02;98733.06;;;19.53;87.03
73910;BME280;62245;48.070;7.874;2022-08-19T03:51:36;98739.03;;;19.50;86.75
73910;BME280;62245;48.070;7.874;2022-08-19T03:54:04;98731.44;;;19.52;87.52
73910;BME280;62245;48.070;7.874;2022-08-19T03:56:30;98741.19;;;19.48;87.00
73910;BME280;62245;48.070;7.874;2022-08-19T03:58:56;98744.69;;;19.54;87.67
73910;BME280;62245;48.070;7.874;2022-08-19T04:01:24;98739.56;;;19.52;87.82
73910;BME280;62245;48.070;7.874;2022-08-19T04:03:51;98751.44;;;19.56;87.54
73910;BME280;62245;48.070;7.874;2022-08-19T04:06:37;98746.59;;;19.53;88.02
73910;BME280;62245;48.070;7.874;2022-08-19T04:09:06;98739.28;;;19.49;87.68
73910;BME280;62245;48.070;7.874;2022-08-19T04:11:41;98749.28;;;19.48;87.60
73910;BME280;62245;48.070;7.874;2022-08-19T04:14:08;98755.25;;;19.50;87.88
73910;BME280;62245;48.070;7.874;2022-08-19T04:16:34;98740.38;;;19.48;87.77
73910;BME280;62245;48.070;7.874;2022-08-19T04:19:02;98752.25;;;19.57;88.26
73910;BME280;62245;48.070;7.874;2022-08-19T04:21:28;98761.75;;;19.54;88.23
73910;BME280;62245;48.070;7.874;2022-08-19T04:23:55;98763.63;;;19.49;88.15
73910;BME280;62245;48.070;7.874;2022-08-19T04:26:23;98748.72;;;19.56;88.55
73910;BME280;62245;48.070;7.874;2022-08-19T04:28:49;98747.13;;;19.55;88.35
73910;BME280;62245;48.070;7.874;2022-08-19T04:31:19;98752.53;;;19.55;88.70
73910;BME280;62245;48.070;7.874;2022-08-19T04:33:46;98748.22;;;19.54;88.88
73910;BME280;62245;48.070;7.874;2022-08-19T04:36:22;98744.69;;;19.59;88.60
73910;BME280;62245;48.070;7.874;2022-08-19T04:38:49;98748.75;;;19.62;88.59
73910;BME280;62245;48.070;7.874;2022-08-19T04:41:14;98742.50;;;19.61;88.23
73910;BME280;62245;48.070;7.874;2022-08-19T04:43:59;98744.66;;;19.64;88.39
73910;BME280;62245;48.070;7.874;2022-08-19T04:46:24;98750.34;;;19.68;88.26
73910;BME280;62245;48.070;7.874;2022-08-19T04:48:49;98744.91;;;19.68;88.17
73910;BME280;62245;48.070;7.874;2022-08-19T04:51:15;98749.25;;;19.69;88.11
73910;BME280;62245;48.070;7.874;2022-08-19T04:53:41;98757.66;;;19.62;88.19
73910;BME280;62245;48.070;7.874;2022-08-19T04:56:13;98757.13;;;19.55;88.13
73910;BME280;62245;48.070;7.874;2022-08-19T04:58:41;98760.66;;;19.50;88.66
73910;BME280;62245;48.070;7.874;2022-08-19T05:01:09;98766.63;;;19.52;88.61
73910;BME280;62245;48.070;7.874;2022-08-19T05:03:35;98768.75;;;19.55;88.57
73910;BME280;62245;48.070;7.874;2022-08-19T05:06:06;98775.78;;;19.56;88.65
73910;BME280;62245;48.070;7.874;2022-08-19T05:08:34;98778.50;;;19.56;88.22
73910;BME280;62245;48.070;7.874;2022-08-19T05:11:00;98779.59;;;19.55;88.58
73910;BME280;62245;48.070;7.874;2022-08-19T05:13:25;98784.19;;;19.55;88.23
73910;BME280;62245;48.070;7.874;2022-08-19T05:15:56;98788.81;;;19.54;88.26
73910;BME280;62245;48.070;7.874;2022-08-19T05:18:22;98790.13;;;19.57;88.79
73910;BME280;62245;48.070;7.874;2022-08-19T05:21:14;98786.09;;;19.54;88.54
73910;BME280;62245;48.070;7.874;2022-08-19T05:23:58;98786.63;;;19.51;88.40
73910;BME280;62245;48.070;7.874;2022-08-19T05:26:25;98791.50;;;19.49;88.60
73910;BME280;62245;48.070;7.874;2022-08-19T05:28:54;98792.59;;;19.53;88.76
73910;BME280;62245;48.070;7.874;2022-08-19T05:31:20;98790.13;;;19.57;88.45
73910;BME280;62245;48.070;7.874;2022-08-19T05:33:46;98786.63;;;19.56;88.38
73910;BME280;62245;48.070;7.874;2022-08-19T05:36:12;98793.13;;;19.61;88.53
73910;BME280;62245;48.070;7.874;2022-08-19T05:38:38;98795.00;;;19.60;88.69
73910;BME280;62245;48.070;7.874;2022-08-19T05:41:11;98793.94;;;19.61;88.41
73910;BME280;62245;48.070;7.874;2022-08-19T05:43:37;98796.88;;;19.65;88.60
73910;BME280;62245;48.070;7.874;2022-08-19T05:46:04;98804.47;;;19.68;88.60
73910;BME280;62245;48.070;7.874;2022-08-19T05:48:31;98809.59;;;19.74;88.51
73910;BME280;62245;48.070;7.874;2022-08-19T05:50:56;98799.59;;;19.70;88.45
73910;BME280;62245;48.070;7.874;2022-08-19T05:53:23;98801.75;;;19.78;88.87
73910;BME280;62245;48.070;7.874;2022-08-19T05:55:48;98795.75;;;19.81;88.28
73910;BME280;62245;48.070;7.874;2022-08-19T05:58:14;98803.94;;;19.71;87.76
73910;BME280;62245;48.070;7.874;2022-08-19T06:00:42;98816.91;;;19.69;86.74
73910;BME280;62245;48.070;7.874;2022-08-19T06:03:08;98815.56;;;19.66;87.02
73910;BME280;62245;48.070;7.874;2022-08-19T06:05:33;98811.50;;;19.69;86.62
73910;BME280;62245;48.070;7.874;2022-08-19T06:07:58;98817.44;;;19.66;86.78
73910;BME280;62245;48.070;7.874;2022-08-19T06:10:25;98822.56;;;19.72;86.92
73910;BME280;62245;48.070;7.874;2022-08-19T06:12:51;98834.22;;;19.78;87.17
73910;BME280;62245;48.070;7.874;2022-08-19T06:15:17;98826.63;;;19.75;86.38
73910;BME280;62245;48.070;7.874;2022-08-19T06:17:42;98827.72;;;19.79;86.67
73910;BME280;62245;48.070;7.874;2022-08-19T06:20:11;98837.44;;;19.85;86.90
73910;BME280;62245;48.070;7.874;2022-08-19T06:22:43;98831.75;;;19.81;86.76
73910;BME280;62245;48.070;7.874;2022-08-19T06:25:10;98839.06;;;19.86;87.08
73910;BME280;62245;48.070;7.874;2022-08-19T06:27:36;98833.38;;;19.82;86.92
73910;BME280;62245;48.070;7.874;2022-08-19T06:30:02;98841.25;;;19.84;86.25
73910;BME280;62245;48.070;7.874;2022-08-19T06:32:28;98835.84;;;19.79;85.96
73910;BME280;62245;48.070;7.874;2022-08-19T06:34:54;98836.63;;;19.84;85.89
73910;BME280;62245;48.070;7.874;2022-08-19T06:37:19;98845.31;;;19.86;86.20
73910;BME280;62245;48.070;7.874;2022-08-19T06:39:47;98847.44;;;19.89;86.28
73910;BME280;62245;48.070;7.874;2022-08-19T06:42:12;98846.94;;;19.87;86.53
73910;BME280;62245;48.070;7.874;2022-08-19T06:44:42;98851.50;;;19.92;86.26
73910;BME280;62245;48.070;7.874;2022-08-19T06:47:11;98853.41;;;19.91;86.51
73910;BME280;62245;48.070;7.874;2022-08-19T06:49:37;98845.84;;;19.88;85.93
73910;BME280;62245;48.070;7.874;2022-08-19T06:52:03;98848.81;;;19.92;86.56
73910;BME280;62245;48.070;7.874;2022-08-19T06:54:29;98850.44;;;19.93;85.94
73910;BME280;62245;48.070;7.874;2022-08-19T06:56:56;98844.22;;;19.87;86.24
73910;BME280;62245;48.070;7.874;2022-08-19T06:59:23;98856.38;;;19.90;86.71
73910;BME280;62245;48.070;7.874;2022-08-19T07:01:53;98854.25;;;19.87;86.39
73910;BME280;62245;48.070;7.874;2022-08-19T07:04:22;98851.25;;;19.88;86.35
73910;BME280;62245;48.070;7.874;2022-08-19T07:06:48;98840.69;;;19.92;86.66
73910;BME280;62245;48.070;7.874;2022-08-19T07:09:16;98831.75;;;19.96;86.75
73910;BME280;62245;48.070;7.874;2022-08-19T07:11:48;98827.94;;;20.03;86.90
73910;BME280;62245;48.070;7.874;2022-08-19T07:14:15;98839.56;;;20.03;86.78
73910;BME280;62245;48.070;7.874;2022-08-19T07:16:41;98837.38;;;20.10;86.38
73910;BME280;62245;48.070;7.874;2022-08-19T07:19:06;98847.63;;;20.18;86.40
73910;BME280;62245;48.070;7.874;2022-08-19T07:21:32;98848.72;;;20.22;86.13
73910;BME280;62245;48.070;7.874;2022-08-19T07:23:59;98851.66;;;20.26;86.26
73910;BME280;62245;48.070;7.874;2022-08-19T07:26:30;98850.84;;;20.25;85.76
73910;BME280;62245;48.070;7.874;2022-08-19T07:28:56;98846.56;;;20.19;85.81
73910;BME280;62245;48.070;7.874;2022-08-19T07:31:27;98861.47;;;20.07;85.85
73910;BME280;62245;48.070;7.874;2022-08-19T07:33:54;98854.94;;;20.18;85.30
73910;BME280;62245;48.070;7.874;2022-08-19T07:36:27;98855.47;;;20.25;85.60
73910;BME280;62245;48.070;7.874;2022-08-19T07:38:56;98849.22;;;20.24;85.15
73910;BME280;62245;48.070;7.874;2022-08-19T07:41:25;98849.50;;;20.28;84.92
73910;BME280;62245;48.070;7.874;2022-08-19T07:43:51;98848.72;;;20.22;84.78
73910;BME280;62245;48.070;7.874;2022-08-19T07:46:17;98854.69;;;20.19;85.45
73910;BME280;62245;48.070;7.874;2022-08-19T07:48:44;98849.22;;;20.29;85.63
73910;BME280;62245;48.070;7.874;2022-08-19T07:51:14;98853.56;;;20.25;84.88
73910;BME280;62245;48.070;7.874;2022-08-19T07:53:41;98848.66;;;20.32;85.44
73910;BME280;62245;48.070;7.874;2022-08-19T07:56:08;98853.03;;;20.28;85.49
73910;BME280;62245;48.070;7.874;2022-08-19T07:58:36;98852.19;;;20.33;85.99
73910;BME280;62245;48.070;7.874;2022-08-19T08:01:03;98863.03;;;20.28;85.84
73910;BME280;62245;48.070;7.874;2022-08-19T08:03:29;98844.91;;;20.28;85.67
73910;BME280;62245;48.070;7.874;2022-08-19T08:06:14;98851.94;;;20.24;85.62
73910;BME280;62245;48.070;7.874;2022-08-19T08:09:00;98861.75;;;20.10;86.28
73910;BME280;62245;48.070;7.874;2022-08-19T08:11:53;98872.31;;;20.07;87.01
73910;BME280;62245;48.070;7.874;2022-08-19T08:14:28;98862.03;;;20.14;86.35
73910;BME280;62245;48.070;7.874;2022-08-19T08:16:54;98870.94;;;20.19;86.13
73910;BME280;62245;48.070;7.874;2022-08-19T08:19:21;98879.34;;;20.13;85.93
73910;BME280;62245;48.070;7.874;2022-08-19T08:21:48;98883.94;;;20.17;85.38
73910;BME280;62245;48.070;7.874;2022-08-19T08:24:14;98883.97;;;20.07;86.05
73910;BME280;62245;48.070;7.874;2022-08-19T08:26:39;98890.19;;;20.08;86.27
73910;BME280;62245;48.070;7.874;2022-08-19T08:29:06;98888.03;;;20.00;86.68
73910;BME280;62245;48.070;7.874;2022-08-19T08:31:33;98898.06;;;19.99;86.69
73910;BME280;62245;48.070;7.874;2022-08-19T08:33:59;98898.34;;;20.03;86.17
73910;BME280;62245;48.070;7.874;2022-08-19T08:36:24;98899.41;;;20.02;86.01
73910;BME280;62245;48.070;7.874;2022-08-19T08:38:50;98902.09;;;20.07;85.64
73910;BME280;62245;48.070;7.874;2022-08-19T08:41:35;98895.59;;;20.13;84.84
73910;BME280;62245;48.070;7.874;2022-08-19T08:44:03;98894.78;;;20.17;84.92
73910;BME280;62245;48.070;7.874;2022-08-19T08:46:39;98898.28;;;20.18;84.07
73910;BME280;62245;48.070;7.874;2022-08-19T08:52:09;98890.94;;;20.39;84.96
73910;BME280;62245;48.070;7.874;2022-08-19T08:54:41;98898.50;;;20.47;83.99
73910;BME280;62245;48.070;7.874;2022-08-19T08:57:13;98905.78;;;20.51;84.44
73910;BME280;62245;48.070;7.874;2022-08-19T08:59:40;98917.41;;;20.62;83.74
73910;BME280;62245;48.070;7.874;2022-08-19T09:02:06;98914.16;;;20.65;83.58
73910;BME280;62245;48.070;7.874;2022-08-19T09:04:34;98917.41;;;20.62;82.09
73910;BME280;62245;48.070;7.874;2022-08-19T09:07:21;98921.22;;;20.66;81.65
73910;BME280;62245;48.070;7.874;2022-08-19T09:09:52;98926.31;;;20.67;80.97
73910;BME280;62245;48.070;7.874;2022-08-19T09:12:44;98925.22;;;20.74;80.20
73910;BME280;62245;48.070;7.874;2022-08-19T09:15:17;98930.94;;;20.72;81.21
73910;BME280;62245;48.070;7.874;2022-08-19T09:17:43;98931.97;;;20.76;80.40
73910;BME280;62245;48.070;7.874;2022-08-19T09:22:36;98933.03;;;20.85;81.71
73910;BME280;62245;48.070;7.874;2022-08-19T09:25:03;98934.09;;;20.89;81.03
73910;BME280;62245;48.070;7.874;2022-08-19T09:27:29;98934.66;;;20.86;79.13
73910;BME280;62245;48.070;7.874;2022-08-19T09:29:55;98935.47;;;20.87;79.53
73910;BME280;62245;48.070;7.874;2022-08-19T09:32:22;98945.50;;;20.91;80.50
73910;BME280;62245;48.070;7.874;2022-08-19T09:34:47;98943.00;;;20.95;80.92
73910;BME280;62245;48.070;7.874;2022-08-19T09:37:12;98943.28;;;20.98;80.63
73910;BME280;62245;48.070;7.874;2022-08-19T09:39:38;98951.38;;;21.03;81.34
73910;BME280;62245;48.070;7.874;2022-08-19T09:42:06;98934.00;;;21.09;80.44
73910;BME280;62245;48.070;7.874;2022-08-19T09:44:37;98944.28;;;21.13;80.05
73910;BME280;62245;48.070;7.874;2022-08-19T09:47:02;98939.91;;;21.17;80.24
73910;BME280;62245;48.070;7.874;2022-08-19T09:49:28;98945.31;;;21.27;79.10
73910;BME280;62245;48.070;7.874;2022-08-19T09:51:54;98941.47;;;21.33;78.05
73910;BME280;62245;48.070;7.874;2022-08-19T09:54:21;98950.56;;;21.52;77.89
73910;BME280;62245;48.070;7.874;2022-08-19T09:56:47;98947.25;;;21.60;76.96
73910;BME280;62245;48.070;7.874;2022-08-19T09:59:12;98957.97;;;21.75;75.08
73910;BME280;62245;48.070;7.874;2022-08-19T10:01:38;98947.66;;;21.77;75.97
73910;BME280;62245;48.070;7.874;2022-08-19T10:04:04;98949.31;;;21.73;74.65
73910;BME280;62245;48.070;7.874;2022-08-19T10:06:34;98954.19;;;21.71;76.63
73910;BME280;62245;48.070;7.874;2022-08-19T10:09:00;98949.09;;;21.70;76.39
73910;BME280;62245;48.070;7.874;2022-08-19T10:11:26;98950.69;;;21.71;77.18
73910;BME280;62245;48.070;7.874;2022-08-19T10:13:53;98953.66;;;21.74;77.36
73910;BME280;62245;48.070;7.874;2022-08-19T10:16:20;98954.19;;;21.76;77.10
73910;BME280;62245;48.070;7.874;2022-08-19T10:18:47;98950.13;;;21.74;77.47
73910;BME280;62245;48.070;7.874;2022-08-19T10:21:16;98949.84;;;21.75;77.82
73910;BME280;62245;48.070;7.874;2022-08-19T10:23:47;98955.31;;;21.70;76.57
73910;BME280;62245;48.070;7.874;2022-08-19T10:26:16;98961.78;;;21.74;77.66
73910;BME280;62245;48.070;7.874;2022-08-19T10:28:42;98955.81;;;21.72;78.05
73910;BME280;62245;48.070;7.874;2022-08-19T10:31:09;98945.03;;;21.67;77.00
73910;BME280;62245;48.070;7.874;2022-08-19T10:33:35;98947.47;;;21.69;75.16
73910;BME280;62245;48.070;7.874;2022-08-19T10:36:09;98950.69;;;21.71;77.01
73910;BME280;62245;48.070;7.874;2022-08-19T10:38:36;98948.28;;;21.69;76.52
73910;BME280;62245;48.070;7.874;2022-08-19T10:41:28;98953.16;;;21.67;75.96
73910;BME280;62245;48.070;7.874;2022-08-19T10:43:56;98949.63;;;21.67;75.82
73910;BME280;62245;48.070;7.874;2022-08-19T10:46:25;98953.09;;;21.72;76.62
73910;BME280;62245;48.070;7.874;2022-08-19T10:48:51;98944.69;;;21.74;74.98
73910;BME280;62245;48.070;7.874;2022-08-19T10:51:17;98946.06;;;21.71;74.25
73910;BME280;62245;48.070;7.874;2022-08-19T10:54:02;98949.56;;;21.77;74.10
73910;BME280;62245;48.070;7.874;2022-08-19T10:56:28;98948.41;;;21.83;74.70
73910;BME280;62245;48.070;7.874;2022-08-19T10:59:13;98952.91;;;21.98;75.17
73910;BME280;62245;48.070;7.874;2022-08-19T11:01:40;98958.53;;;22.06;73.63
73910;BME280;62245;48.070;7.874;2022-08-19T11:04:06;98950.56;;;22.20;73.96
73910;BME280;62245;48.070;7.874;2022-08-19T11:06:35;98954.00;;;22.26;72.60
73910;BME280;62245;48.070;7.874;2022-08-19T11:09:00;98958.41;;;22.22;71.86
73910;BME280;62245;48.070;7.874;2022-08-19T11:11:26;98951.59;;;22.24;72.28
73910;BME280;62245;48.070;7.874;2022-08-19T11:13:51;98950.84;;;22.42;71.67
73910;BME280;62245;48.070;7.874;2022-08-19T11:16:22;98945.22;;;22.57;71.05
73910;BME280;62245;48.070;7.874;2022-08-19T11:18:51;98948.88;;;22.72;68.66
73910;BME280;62245;48.070;7.874;2022-08-19T11:21:23;98947.25;;;22.94;70.26
73910;BME280;62245;48.070;7.874;2022-08-19T11:23:51;98935.59;;;23.13;69.00
73910;BME280;62245;48.070;7.874;2022-08-19T11:26:18;98938.69;;;23.25;68.09
73910;BME280;62245;48.070;7.874;2022-08-19T11:28:44;98940.94;;;23.37;68.91
73910;BME280;62245;48.070;7.874;2022-08-19T11:31:13;98946.22;;;23.52;69.50
73910;BME280;62245;48.070;7.874;2022-08-19T11:33:39;98940.00;;;23.65;69.04
73910;BME280;62245;48.070;7.874;2022-08-19T11:36:04;98936.59;;;23.73;69.02
73910;BME280;62245;48.070;7.874;2022-08-19T11:38:29;98939.03;;;23.75;69.29
73910;BME280;62245;48.070;7.874;2022-08-19T11:41:00;98937.16;;;23.70;68.28
73910;BME280;62245;48.070;7.874;2022-08-19T11:43:26;98939.53;;;23.77;68.44
73910;BME280;62245;48.070;7.874;2022-08-19T11:45:55;98931.97;;;23.87;67.54
73910;BME280;62245;48.070;7.874;2022-08-19T11:48:20;98931.81;;;23.97;67.12
73910;BME280;62245;48.070;7.874;2022-08-19T11:50:48;98929.78;;;23.89;65.61
73910;BME280;62245;48.070;7.874;2022-08-19T11:53:13;98936.59;;;23.73;65.83
73910;BME280;62245;48.070;7.874;2022-08-19T11:55:39;98928.41;;;23.73;65.05
73910;BME280;62245;48.070;7.874;2022-08-19T11:58:05;98932.53;;;23.70;66.14
73910;BME280;62245;48.070;7.874;2022-08-19T12:00:32;98931.72;;;23.70;65.30
73910;BME280;62245;48.070;7.874;2022-08-19T12:02:58;98926.09;;;23.80;66.49
73910;BME280;62245;48.070;7.874;2022-08-19T12:05:23;98935.22;;;23.89;67.04
73910;BME280;62245;48.070;7.874;2022-08-19T12:07:49;98921.06;;;23.87;65.89
73910;BME280;62245;48.070;7.874;2022-08-19T12:10:14;98924.44;;;23.98;65.21
73910;BME280;62245;48.070;7.874;2022-08-19T12:12:40;98926.72;;;23.77;61.21
73910;BME280;62245;48.070;7.874;2022-08-19T12:15:08;98927.97;;;23.98;60.53
73910;BME280;62245;48.070;7.874;2022-08-19T12:17:35;98927.91;;;24.03;60.96
73910;BME280;62245;48.070;7.874;2022-08-19T12:20:01;98913.88;;;24.10;61.62
73910;BME280;62245;48.070;7.874;2022-08-19T12:22:26;98918.47;;;23.96;60.84
73910;BME280;62245;48.070;7.874;2022-08-19T12:24:53;98925.06;;;24.08;60.64
73910;BME280;62245;48.070;7.874;2022-08-19T12:27:20;98922.56;;;24.12;61.09
73910;BME280;62245;48.070;7.874;2022-08-19T12:29:45;98928.84;;;24.13;62.64
73910;BME280;62245;48.070;7.874;2022-08-19T12:32:11;98927.03;;;24.22;64.17
73910;BME280;62245;48.070;7.874;2022-08-19T12:34:36;98927.88;;;24.36;63.82
73910;BME280;62245;48.070;7.874;2022-08-19T12:37:04;98935.41;;;24.39;63.54
73910;BME280;62245;48.070;7.874;2022-08-19T12:39:34;98925.44;;;24.34;62.62
73910;BME280;62245;48.070;7.874;2022-08-19T12:41:59;98930.59;;;24.36;63.17
73910;BME280;62245;48.070;7.874;2022-08-19T12:44:24;98931.38;;;24.23;62.45
73910;BME280;62245;48.070;7.874;2022-08-19T12:46:50;98931.38;;;24.23;62.75
73910;BME280;62245;48.070;7.874;2022-08-19T12:49:15;98927.25;;;24.25;63.70
73910;BME280;62245;48.070;7.874;2022-08-19T12:51:41;98929.84;;;24.17;61.40
73910;BME280;62245;48.070;7.874;2022-08-19T12:54:07;98927.41;;;24.15;62.21
73910;BME280;62245;48.070;7.874;2022-08-19T12:56:32;98921.72;;;23.98;62.00
73910;BME280;62245;48.070;7.874;2022-08-19T12:59:01;98916.16;;;23.89;62.06
73910;BME280;62245;48.070;7.874;2022-08-19T13:01:26;98930.31;;;24.05;62.23
73910;BME280;62245;48.070;7.874;2022-08-19T13:03:53;98923.78;;;24.20;62.50
73910;BME280;62245;48.070;7.874;2022-08-19T13:06:18;98922.19;;;24.32;61.91
73910;BME280;62245;48.070;7.874;2022-08-19T13:08:43;98923.22;;;24.36;59.46
73910;BME280;62245;48.070;7.874;2022-08-19T13:11:11;98933.13;;;24.46;59.89
73910;BME280;62245;48.070;7.874;2022-08-19T13:13:42;98925.25;;;24.44;58.92
73910;BME280;62245;48.070;7.874;2022-08-19T13:16:10;98919.50;;;24.46;59.07
73910;BME280;62245;48.070;7.874;2022-08-19T13:18:36;98922.50;;;24.58;59.46
73910;BME280;62245;48.070;7.874;2022-08-19T13:21:07;98915.44;;;24.43;58.50
73910;BME280;62245;48.070;7.874;2022-08-19T13:23:34;98915.84;;;24.64;59.91
73910;BME280;62245;48.070;7.874;2022-08-19T13:26:04;98915.34;;;24.62;58.47
73910;BME280;62245;48.070;7.874;2022-08-19T13:28:30;98916.94;;;24.77;59.31
73910;BME280;62245;48.070;7.874;2022-08-19T13:31:20;98900.03;;;25.02;59.33
73910;BME280;62245;48.070;7.874;2022-08-19T13:34:05;98897.22;;;25.07;59.44
73910;BME280;62245;48.070;7.874;2022-08-19T13:36:34;98895.41;;;24.89;58.25
73910;BME280;62245;48.070;7.874;2022-08-19T13:39:00;98904.31;;;24.95;59.14
73910;BME280;62245;48.070;7.874;2022-08-19T13:41:26;98898.97;;;24.62;59.23
73910;BME280;62245;48.070;7.874;2022-08-19T13:43:52;98891.09;;;24.61;59.79
73910;BME280;62245;48.070;7.874;2022-08-19T13:46:17;98882.69;;;24.71;59.39
73910;BME280;62245;48.070;7.874;2022-08-19T13:48:43;98881.38;;;24.68;59.39
73910;BME280;62245;48.070;7.874;2022-08-19T13:51:09;98887.31;;;24.84;59.49
73910;BME280;62245;48.070;7.874;2022-08-19T13:53:38;98891.41;;;25.09;59.19
73910;BME280;62245;48.070;7.874;2022-08-19T13:56:13;98887.59;;;25.10;58.48
73910;BME280;62245;48.070;7.874;2022-08-19T13:58:39;98896.03;;;25.22;57.17
73910;BME280;62245;48.070;7.874;2022-08-19T14:01:05;98884.91;;;24.96;56.57
73910;BME280;62245;48.070;7.874;2022-08-19T14:03:31;98889.25;;;24.97;57.44
73910;BME280;62245;48.070;7.874;2022-08-19T14:05:57;98893.69;;;25.07;58.15
73910;BME280;62245;48.070;7.874;2022-08-19T14:08:24;98898.16;;;25.25;57.28
73910;BME280;62245;48.070;7.874;2022-08-19T14:10:50;98897.28;;;25.16;57.08
73910;BME280;62245;48.070;7.874;2022-08-19T14:13:19;98894.19;;;24.95;56.51
73910;BME280;62245;48.070;7.874;2022-08-19T14:15:45;98899.66;;;24.95;56.43
73910;BME280;62245;48.070;7.874;2022-08-19T14:18:11;98894.50;;;24.80;57.27
73910;BME280;62245;48.070;7.874;2022-08-19T14:20:36;98898.53;;;24.82;58.63
73910;BME280;62245;48.070;7.874;2022-08-19T14:23:02;98911.06;;;24.83;59.24
73910;BME280;62245;48.070;7.874;2022-08-19T14:25:29;98901.75;;;24.85;58.40
73910;BME280;62245;48.070;7.874;2022-08-19T14:27:56;98904.53;;;24.71;57.95
73910;BME280;62245;48.070;7.874;2022-08-19T14:30:30;98909.50;;;24.55;57.97
73910;BME280;62245;48.070;7.874;2022-08-19T14:32:57;98905.84;;;24.46;59.32
73910;BME280;62245;48.070;7.874;2022-08-19T14:35:23;98909.19;;;24.43;60.43
73910;BME280;62245;48.070;7.874;2022-08-19T14:37:50;98907.94;;;24.22;59.82
73910;BME280;62245;48.070;7.874;2022-08-19T14:40:18;98913.03;;;23.96;60.35
73910;BME280;62245;48.070;7.874;2022-08-19T14:43:01;98912.25;;;23.95;61.83
73910;BME280;62245;48.070;7.874;2022-08-19T14:45:32;98909.69;;;23.53;62.39
73910;BME280;62245;48.070;7.874;2022-08-19T14:47:57;98913.22;;;23.35;62.86
73910;BME280;62245;48.070;7.874;2022-08-19T14:50:24;98900.72;;;23.33;62.87
73910;BME280;62245;48.070;7.874;2022-08-19T14:52:49;98911.09;;;23.31;63.24
73910;BME280;62245;48.070;7.874;2022-08-19T14:55:22;98904.03;;;23.30;63.87
73910;BME280;62245;48.070;7.874;2022-08-19T14:57:47;98905.69;;;23.26;63.75
73910;BME280;62245;48.070;7.874;2022-08-19T15:00:13;98909.97;;;23.32;63.80
73910;BME280;62245;48.070;7.874;2022-08-19T15:02:39;98913.00;;;23.31;64.04
73910;BME280;62245;48.070;7.874;2022-08-19T15:05:06;98913.88;;;23.26;64.06
73910;BME280;62245;48.070;7.874;2022-08-19T15:07:31;98922.84;;;23.27;63.93
73910;BME280;62245;48.070;7.874;2022-08-19T15:09:57;98914.53;;;23.18;64.08
73910;BME280;62245;48.070;7.874;2022-08-19T15:12:22;98921.03;;;23.22;64.15
73910;BME280;62245;48.070;7.874;2022-08-19T15:14:48;98910.13;;;23.22;64.49
73910;BME280;62245;48.070;7.874;2022-08-19T15:17:15;98926.69;;;23.26;64.33
73910;BME280;62245;48.070;7.874;2022-08-19T15:19:41;98927.47;;;23.26;63.65
73910;BME280;62245;48.070;7.874;2022-08-19T15:22:06;98928.66;;;23.20;64.29
73910;BME280;62245;48.070;7.874;2022-08-19T15:24:32;98922.13;;;23.21;64.71
73910;BME280;62245;48.070;7.874;2022-08-19T15:26:58;98912.56;;;23.05;65.00
73910;BME280;62245;48.070;7.874;2022-08-19T15:29:23;98921.16;;;23.12;64.89
73910;BME280;62245;48.070;7.874;2022-08-19T15:31:50;98909.84;;;23.05;65.36
73910;BME280;62245;48.070;7.874;2022-08-19T15:34:16;98911.16;;;23.08;65.55
73910;BME280;62245;48.070;7.874;2022-08-19T15:36:42;98911.91;;;23.13;65.60
73910;BME280;62245;48.070;7.874;2022-08-19T15:39:08;98912.78;;;23.09;65.04
73910;BME280;62245;48.070;7.874;2022-08-19T15:41:34;98913.09;;;23.07;65.03
73910;BME280;62245;48.070;7.874;2022-08-19T15:44:04;98915.72;;;23.12;64.96
73910;BME280;62245;48.070;7.874;2022-08-19T15:46:35;98912.41;;;23.15;64.77
73910;BME280;62245;48.070;7.874;2022-08-19T15:49:01;98917.34;;;23.13;64.62
73910;BME280;62245;48.070;7.874;2022-08-19T15:51:28;98914.47;;;23.23;64.13
73910;BME280;62245;48.070;7.874;2022-08-19T15:53:55;98922.56;;;23.28;64.23
73910;BME280;62245;48.070;7.874;2022-08-19T15:56:21;98918.22;;;23.27;63.53
73910;BME280;62245;48.070;7.874;2022-08-19T15:58:46;98921.16;;;23.31;63.33
73910;BME280;62245;48.070;7.874;2022-08-19T16:01:30;98918.81;;;23.24;63.10
73910;BME280;62245;48.070;7.874;2022-08-19T16:04:14;98918.81;;;23.24;63.96
73910;BME280;62245;48.070;7.874;2022-08-19T16:07:00;98923.66;;;23.27;63.24
73910;BME280;62245;48.070;7.874;2022-08-19T16:09:29;98921.53;;;23.24;63.33